Keene, VA (22946)

3:03 AM EDT on August 31, 2015 (GMT -0400)
Daniel Morris Lane | | Change Station
CLOSE
Current Station
Personal Weather Station
Location: Charlottesville, VA
Elevation: 505 ft
Nearby Weather Stations

Elev 505 ft 37.95 °N, 78.54 °W | Updated 9 seconds ago

Overcast
Overcast
66.9 °F
Feels Like 66.9 °F
N
0.0
Wind Variable Wind from SSE
Gusts 0.0 mph

Today
High -- | Low -- °F
--% Chance of Precip.
Yesterday
High -- | Low -- °F
Precip. -- in
6:43 AM 7:45 PM
Waning Gibbous, 97% visible
Pressure 30.08 in
Visibility 7.0 miles
Clouds Mostly Cloudy 11000 ft
Dew Point 65 °F
Humidity 95%
Rainfall in
Snow Depth Not available.
UV 0 out of 12
Pollen 8.40 out of 12
Air Quality Not available.
Flu Activity Not available.
METAR KCHO 310553Z AUTO 19003KT 7SM BKN110 23/19 A3010 RMK AO2 SLP184 T02330194 10256 20228 58004
Pressure 30.08 in
Visibility 7.0 miles
Clouds Mostly Cloudy 11000 ft
Dew Point 65 °F
Humidity 95%
Rainfall in
Snow Depth Not available.
UV 0 out of 12
Pollen 8.40 out of 12
Air Quality Not available.
Flu Activity Not available.
METAR KCHO 310553Z AUTO 19003KT 7SM BKN110 23/19 A3010 RMK AO2 SLP184 T02330194 10256 20228 58004

10-Day Weather Forecast

×

Almanac

Astronomy

Aug. 31, 2015 Rise Set
Actual Time
Civil Twilight
Nautical Twilight
Astronomical Twilight
Moon
Length of Visible Light
Length of Day
Tomorrow will be .
, % of the Moon is Illuminated

Today's Extremes

State Highs State Lows

Community

WunderPhotos

Upload Photos

1,851,217 photos uploaded!

WunderBlogs® & News

Nearby

Air Quality

  Air Quality AQ Index Pollutant
Not available.

Snow Depth

Station Depth Elevation

Earthquake Activity

City Distance Mag. Time & Date
Minimum magnitude displayed is 2.5.

Coastal Water Temperatures

Place Temperature

Stations

Nearby Weather Stations

Station Location Temp. Windchill Dew Point Humidity Wind Precip. Elev Updated Type